createdAt,value
2022-07-28T00:01:25.696Z,26.32
2022-07-28T00:02:59.011Z,26.26
2022-07-28T00:04:32.577Z,26.21
2022-07-28T00:06:06.253Z,26.14
2022-07-28T00:07:39.471Z,26.02
2022-07-28T00:09:12.715Z,25.92
2022-07-28T00:10:46.525Z,25.87
2022-07-28T00:12:19.914Z,25.82
2022-07-28T00:13:54.562Z,25.80
2022-07-28T00:15:28.513Z,25.75
2022-07-28T00:17:01.926Z,25.73
2022-07-28T00:18:35.338Z,25.73
2022-07-28T00:20:09.587Z,25.75
2022-07-28T00:21:42.880Z,25.76
2022-07-28T00:23:16.375Z,25.77
2022-07-28T00:24:50.424Z,25.76
2022-07-28T00:26:23.422Z,25.73
2022-07-28T00:27:56.872Z,25.66
2022-07-28T00:29:41.071Z,25.65
2022-07-28T00:31:23.457Z,25.62
2022-07-28T00:32:56.937Z,25.60
2022-07-28T00:34:30.174Z,25.61
2022-07-28T00:36:04.046Z,25.59
2022-07-28T00:37:39.724Z,25.56
2022-07-28T00:39:13.407Z,25.49
2022-07-28T00:41:04.544Z,25.38
2022-07-28T00:42:37.965Z,25.40
2022-07-28T00:44:11.873Z,25.40
2022-07-28T00:45:47.487Z,25.35
2022-07-28T00:47:21.249Z,25.23
2022-07-28T00:48:56.027Z,25.23
2022-07-28T00:50:28.309Z,25.19
2022-07-28T00:52:02.119Z,25.22
2022-07-28T00:53:35.565Z,25.16
2022-07-28T00:55:09.620Z,25.12
2022-07-28T00:56:42.894Z,25.06
2022-07-28T00:58:15.385Z,24.99
2022-07-28T00:59:48.998Z,24.95
2022-07-28T01:01:24.194Z,24.91
2022-07-28T01:02:56.963Z,24.87
2022-07-28T01:04:31.230Z,24.87
2022-07-28T01:06:10.702Z,24.91
2022-07-28T01:07:51.268Z,24.87
2022-07-28T01:09:42.047Z,24.85
2022-07-28T01:11:25.963Z,24.83
2022-07-28T01:13:05.984Z,24.82
2022-07-28T01:14:45.655Z,24.76
2022-07-28T01:16:22.719Z,24.75
2022-07-28T01:18:04.695Z,24.74
2022-07-28T01:19:45.146Z,24.66
2022-07-28T01:21:25.887Z,24.60
2022-07-28T01:23:22.648Z,24.55
2022-07-28T01:25:08.350Z,24.50
2022-07-28T01:26:52.978Z,24.49
2022-07-28T01:28:33.155Z,24.44
2022-07-28T01:30:10.226Z,24.37
2022-07-28T01:31:49.277Z,24.37
2022-07-28T01:33:30.261Z,24.34
2022-07-28T01:35:11.652Z,24.34
2022-07-28T01:36:47.740Z,24.39
2022-07-28T01:38:23.229Z,24.37
2022-07-28T01:40:00.178Z,24.34
2022-07-28T01:41:35.897Z,24.33
2022-07-28T01:43:13.471Z,24.33
2022-07-28T01:44:50.111Z,24.35
2022-07-28T01:46:25.029Z,24.36
2022-07-28T01:48:01.948Z,24.34
2022-07-28T01:49:37.303Z,24.34
2022-07-28T01:51:10.354Z,24.31
2022-07-28T01:52:45.660Z,24.31
2022-07-28T01:54:22.185Z,24.27
2022-07-28T01:55:57.430Z,24.24
2022-07-28T01:57:33.105Z,24.24
2022-07-28T01:59:10.064Z,24.16
2022-07-28T02:00:45.482Z,24.04
2022-07-28T02:02:18.922Z,23.95
2022-07-28T02:03:55.822Z,23.87
2022-07-28T02:05:31.700Z,23.81
2022-07-28T02:07:06.431Z,23.75
2022-07-28T02:08:41.717Z,23.74
2022-07-28T02:10:19.121Z,23.65
2022-07-28T02:11:54.392Z,23.63
2022-07-28T02:13:27.788Z,23.63
2022-07-28T02:15:01.815Z,23.55
2022-07-28T02:16:35.204Z,23.41
2022-07-28T02:18:11.392Z,23.34
2022-07-28T02:19:50.384Z,23.33
2022-07-28T02:21:26.125Z,23.38
2022-07-28T02:22:59.783Z,23.37
2022-07-28T02:24:33.864Z,23.41
2022-07-28T02:26:12.143Z,23.39
2022-07-28T02:27:49.625Z,23.32
2022-07-28T02:29:49.829Z,23.32
2022-07-28T02:31:26.081Z,23.24
2022-07-28T02:33:04.938Z,23.27
2022-07-28T02:34:41.655Z,23.29
2022-07-28T02:36:25.928Z,23.27
2022-07-28T02:38:03.402Z,23.30
2022-07-28T02:39:59.994Z,23.32
2022-07-28T02:41:39.719Z,23.34
2022-07-28T02:43:15.934Z,23.38
2022-07-28T02:44:56.667Z,23.35
2022-07-28T02:46:38.405Z,23.21
2022-07-28T02:48:16.618Z,23.16
2022-07-28T02:49:52.725Z,23.05
2022-07-28T02:51:30.574Z,22.99
2022-07-28T02:53:15.771Z,22.94
2022-07-28T02:54:51.273Z,22.95
2022-07-28T02:56:26.559Z,22.92
2022-07-28T02:58:00.903Z,22.73
2022-07-28T02:59:39.223Z,22.73
2022-07-28T03:01:13.749Z,22.72
2022-07-28T03:02:47.860Z,22.68
2022-07-28T03:04:41.311Z,22.67
2022-07-28T03:06:16.822Z,22.69
2022-07-28T03:07:53.796Z,22.69
2022-07-28T03:09:28.961Z,22.76
2022-07-28T03:11:09.759Z,22.83
2022-07-28T03:12:43.178Z,22.88
2022-07-28T03:14:16.867Z,22.93
2022-07-28T03:15:50.240Z,22.99
2022-07-28T03:17:23.626Z,23.01
2022-07-28T03:18:57.778Z,22.96
2022-07-28T03:20:31.455Z,22.94
2022-07-28T03:22:05.459Z,22.88
2022-07-28T03:23:43.098Z,22.84
2022-07-28T03:25:22.674Z,22.75
2022-07-28T03:27:02.214Z,22.73
2022-07-28T03:28:37.947Z,22.72
2022-07-28T03:30:14.613Z,22.68
2022-07-28T03:31:49.326Z,22.62
2022-07-28T03:33:23.058Z,22.50
2022-07-28T03:34:56.813Z,22.50
2022-07-28T03:36:39.935Z,22.56
2022-07-28T03:38:18.053Z,22.56
2022-07-28T03:39:56.053Z,22.58
2022-07-28T03:41:30.889Z,22.67
2022-07-28T03:43:08.209Z,22.70
2022-07-28T03:44:43.369Z,22.69
2022-07-28T03:46:16.672Z,22.79
2022-07-28T03:47:52.031Z,22.83
2022-07-28T03:49:25.245Z,22.86
2022-07-28T03:50:58.964Z,22.90
2022-07-28T03:52:32.382Z,22.92
2022-07-28T03:54:06.065Z,22.92
2022-07-28T03:55:39.786Z,22.99
2022-07-28T03:57:13.368Z,23.05
2022-07-28T03:58:47.134Z,23.07
2022-07-28T04:00:21.693Z,23.16
2022-07-28T04:01:55.474Z,23.23
2022-07-28T04:03:36.693Z,23.32
2022-07-28T04:05:20.033Z,23.43
2022-07-28T04:06:53.368Z,23.51
2022-07-28T04:08:26.651Z,23.60
2022-07-28T04:10:00.038Z,23.64
2022-07-28T04:11:34.728Z,23.73
2022-07-28T04:13:08.108Z,23.82
2022-07-28T04:14:41.393Z,23.88
2022-07-28T04:16:15.026Z,23.95
2022-07-28T04:17:49.620Z,23.99
2022-07-28T04:19:23.067Z,24.07
2022-07-28T04:20:56.892Z,24.17
2022-07-28T04:22:30.376Z,24.17
2022-07-28T04:24:03.660Z,24.27
2022-07-28T04:25:37.069Z,24.31
2022-07-28T04:27:16.225Z,24.47
2022-07-28T04:28:49.589Z,24.53
2022-07-28T04:30:25.809Z,24.57
2022-07-28T04:31:59.239Z,24.67
2022-07-28T04:33:33.176Z,24.67
2022-07-28T04:35:06.407Z,24.70
2022-07-28T04:36:43.681Z,24.78
2022-07-28T04:38:18.251Z,24.85
2022-07-28T04:39:51.994Z,25.02
2022-07-28T04:41:25.586Z,25.17
2022-07-28T04:43:00.287Z,25.42
2022-07-28T04:44:33.594Z,25.68
2022-07-28T04:46:06.007Z,26.02
2022-07-28T04:47:40.227Z,26.36
2022-07-28T04:49:13.645Z,26.70
2022-07-28T04:50:47.066Z,27.00
2022-07-28T04:52:20.867Z,27.28
2022-07-28T04:53:54.293Z,27.60
2022-07-28T04:55:27.734Z,27.89
2022-07-28T04:57:01.004Z,28.21
2022-07-28T04:58:41.135Z,28.51
2022-07-28T05:00:17.577Z,28.80
2022-07-28T05:01:51.252Z,29.00
2022-07-28T05:03:24.636Z,29.32
2022-07-28T05:04:57.299Z,29.61
2022-07-28T05:06:30.938Z,29.87
2022-07-28T05:08:04.329Z,30.07
2022-07-28T05:09:37.664Z,30.27
2022-07-28T05:11:11.088Z,30.41
2022-07-28T05:12:45.665Z,30.48
2022-07-28T05:14:20.307Z,30.73
2022-07-28T05:15:53.541Z,30.91
2022-07-28T05:17:27.271Z,31.20
2022-07-28T05:19:00.662Z,31.57
2022-07-28T05:20:34.125Z,31.83
2022-07-28T05:22:07.482Z,32.03
2022-07-28T05:23:47.158Z,32.16
2022-07-28T05:25:22.984Z,32.26
2022-07-28T05:26:56.316Z,32.42
2022-07-28T05:28:29.543Z,32.50
2022-07-28T05:30:04.533Z,32.67
2022-07-28T05:31:38.068Z,32.86
2022-07-28T05:33:11.470Z,33.16
2022-07-28T05:34:45.527Z,33.38
2022-07-28T05:36:18.841Z,33.46
2022-07-28T05:37:52.214Z,33.75
2022-07-28T05:39:25.597Z,33.83
2022-07-28T05:40:59.953Z,34.02
2022-07-28T05:42:36.061Z,34.07
2022-07-28T05:44:09.687Z,34.18
2022-07-28T05:45:44.445Z,34.21
2022-07-28T05:47:17.906Z,34.13
2022-07-28T05:48:51.881Z,34.19
2022-07-28T05:50:25.565Z,34.39
2022-07-28T05:51:58.807Z,34.58
2022-07-28T05:53:32.144Z,34.66
2022-07-28T05:55:06.725Z,34.91
2022-07-28T05:56:40.092Z,35.16
2022-07-28T05:58:13.555Z,35.39
2022-07-28T05:59:47.023Z,35.56
2022-07-28T06:01:21.830Z,35.78
2022-07-28T06:02:55.389Z,35.77
2022-07-28T06:04:29.395Z,35.75
2022-07-28T06:06:15.899Z,35.65
2022-07-28T06:07:51.613Z,35.01
2022-07-28T06:09:25.052Z,34.70
2022-07-28T06:11:02.129Z,34.41
2022-07-28T06:12:40.994Z,34.32
2022-07-28T06:14:14.736Z,34.29
2022-07-28T06:15:48.980Z,34.10
2022-07-28T06:17:23.733Z,34.08
2022-07-28T06:18:57.363Z,34.04
2022-07-28T06:20:30.750Z,34.22
2022-07-28T06:22:06.457Z,34.27
2022-07-28T06:23:39.828Z,34.26
2022-07-28T06:25:17.311Z,33.87
2022-07-28T06:26:50.801Z,33.45
2022-07-28T06:28:24.393Z,33.17
2022-07-28T06:29:59.003Z,33.02
2022-07-28T06:31:32.292Z,32.69
2022-07-28T06:33:07.824Z,32.56
2022-07-28T06:34:41.492Z,32.28
2022-07-28T06:36:14.948Z,32.27
2022-07-28T06:37:49.672Z,32.32
2022-07-28T06:39:23.064Z,32.40
2022-07-28T06:40:56.569Z,32.43
2022-07-28T06:42:29.916Z,32.37
2022-07-28T06:44:03.156Z,32.43
2022-07-28T06:45:36.826Z,32.56
2022-07-28T06:47:10.451Z,32.61
2022-07-28T06:48:46.237Z,32.53
2022-07-28T06:50:25.983Z,32.44
2022-07-28T06:52:00.374Z,32.57
2022-07-28T06:53:34.734Z,32.85
2022-07-28T06:55:09.218Z,33.30
2022-07-28T06:56:43.938Z,33.72
2022-07-28T06:58:23.140Z,33.79
2022-07-28T06:59:57.345Z,34.03
2022-07-28T07:01:30.771Z,34.41
2022-07-28T07:03:04.127Z,34.79
2022-07-28T07:04:39.112Z,34.62
2022-07-28T07:06:12.745Z,34.60
2022-07-28T07:07:46.000Z,34.83
2022-07-28T07:09:19.283Z,35.18
2022-07-28T07:10:52.831Z,35.55
2022-07-28T07:12:26.305Z,35.98
2022-07-28T07:14:02.434Z,36.39
2022-07-28T07:15:35.990Z,36.53
2022-07-28T07:17:09.431Z,36.32
2022-07-28T07:18:42.886Z,36.63
2022-07-28T07:20:17.255Z,36.57
2022-07-28T07:21:52.301Z,36.86
2022-07-28T07:23:25.667Z,37.11
2022-07-28T07:24:59.022Z,36.96
2022-07-28T07:26:32.260Z,36.97
2022-07-28T07:28:05.906Z,37.03
2022-07-28T07:29:39.337Z,36.60
2022-07-28T07:31:12.810Z,36.53
2022-07-28T07:32:46.457Z,36.63
2022-07-28T07:34:19.765Z,36.53
2022-07-28T07:35:54.761Z,36.62
2022-07-28T07:37:28.189Z,36.54
2022-07-28T07:39:01.551Z,36.35
2022-07-28T07:40:35.016Z,36.43
2022-07-28T07:42:08.635Z,36.41
2022-07-28T07:43:45.836Z,36.62
2022-07-28T07:45:21.124Z,36.89
2022-07-28T07:46:54.381Z,37.01
2022-07-28T07:48:27.919Z,36.83
2022-07-28T07:50:04.356Z,36.57
2022-07-28T07:51:39.312Z,35.93
2022-07-28T07:53:12.674Z,36.04
2022-07-28T07:54:45.643Z,36.04
2022-07-28T07:56:19.476Z,36.41
2022-07-28T07:57:52.831Z,36.54
2022-07-28T07:59:26.419Z,36.44
2022-07-28T08:00:59.885Z,36.13
2022-07-28T08:02:33.226Z,35.34
2022-07-28T08:04:07.332Z,35.10
2022-07-28T08:05:41.620Z,35.06
2022-07-28T08:07:16.413Z,35.07
2022-07-28T08:08:50.181Z,34.95
2022-07-28T08:10:23.549Z,34.80
2022-07-28T08:11:56.858Z,34.26
2022-07-28T08:13:30.283Z,34.16
2022-07-28T08:15:03.818Z,34.10
2022-07-28T08:16:37.456Z,34.14
2022-07-28T08:18:10.942Z,34.11
2022-07-28T08:19:44.461Z,34.00
2022-07-28T08:21:18.061Z,33.75
2022-07-28T08:22:54.948Z,33.55
2022-07-28T08:24:32.641Z,33.63
2022-07-28T08:26:08.031Z,33.65
2022-07-28T08:27:41.332Z,33.46
2022-07-28T08:29:14.671Z,33.41
2022-07-28T08:30:47.863Z,33.55
2022-07-28T08:32:21.182Z,33.80
2022-07-28T08:33:55.069Z,33.98
2022-07-28T08:35:34.003Z,34.01
2022-07-28T08:37:08.199Z,34.09
2022-07-28T08:38:43.366Z,34.20
2022-07-28T08:40:16.716Z,34.32
2022-07-28T08:41:56.790Z,34.48
2022-07-28T08:43:34.922Z,34.31
2022-07-28T08:45:09.457Z,34.56
2022-07-28T08:46:45.243Z,34.80
2022-07-28T08:48:19.388Z,35.21
2022-07-28T08:49:55.406Z,35.39
2022-07-28T08:51:29.214Z,35.95
2022-07-28T08:53:03.089Z,36.05
2022-07-28T08:54:42.284Z,36.21
2022-07-28T08:56:16.946Z,36.43
2022-07-28T08:57:51.307Z,36.43
2022-07-28T08:59:29.578Z,36.60
2022-07-28T09:01:04.244Z,37.04
2022-07-28T09:02:41.746Z,37.18
2022-07-28T09:04:17.179Z,37.20
2022-07-28T09:05:51.798Z,37.52
2022-07-28T09:07:25.938Z,37.61
2022-07-28T09:08:59.244Z,37.40
2022-07-28T09:10:34.031Z,37.55
2022-07-28T09:12:08.284Z,37.52
2022-07-28T09:13:41.705Z,37.69
2022-07-28T09:15:15.515Z,37.25
2022-07-28T09:16:48.968Z,37.34
2022-07-28T09:18:22.708Z,37.54
2022-07-28T09:19:56.272Z,37.44
2022-07-28T09:21:29.770Z,37.35
2022-07-28T09:23:04.678Z,37.45
2022-07-28T09:24:41.575Z,37.31
2022-07-28T09:26:17.484Z,36.97
2022-07-28T09:27:51.950Z,36.29
2022-07-28T09:29:25.888Z,35.74
2022-07-28T09:31:08.321Z,35.61
2022-07-28T09:32:41.843Z,35.49
2022-07-28T09:34:15.480Z,35.18
2022-07-28T09:35:51.792Z,34.94
2022-07-28T09:37:28.610Z,35.15
2022-07-28T09:39:02.446Z,35.41
2022-07-28T09:40:36.381Z,35.60
2022-07-28T09:42:11.246Z,35.81
2022-07-28T09:43:46.998Z,35.56
2022-07-28T09:45:29.125Z,35.60
2022-07-28T09:47:02.799Z,35.75
2022-07-28T09:48:37.083Z,36.20
2022-07-28T09:50:21.877Z,36.60
2022-07-28T09:52:02.426Z,36.96
2022-07-28T09:53:35.822Z,37.42
2022-07-28T09:55:10.987Z,37.81
2022-07-28T09:56:46.147Z,37.82
2022-07-28T09:58:20.040Z,37.73
2022-07-28T09:59:56.062Z,37.17
2022-07-28T10:01:36.635Z,36.78
2022-07-28T10:03:10.766Z,36.53
2022-07-28T10:04:44.605Z,36.44
2022-07-28T10:06:26.337Z,36.28
2022-07-28T10:07:59.654Z,36.29
2022-07-28T10:09:33.551Z,36.25
2022-07-28T10:11:06.938Z,36.32
2022-07-28T10:12:40.514Z,36.13
2022-07-28T10:14:16.452Z,35.97
2022-07-28T10:16:11.098Z,35.62
2022-07-28T10:17:44.911Z,35.33
2022-07-28T10:19:18.244Z,35.09
2022-07-28T10:20:51.358Z,35.10
2022-07-28T10:22:33.463Z,35.09
2022-07-28T10:24:09.549Z,34.99
2022-07-28T10:25:45.275Z,34.90
2022-07-28T10:27:18.796Z,35.06
2022-07-28T10:28:55.685Z,35.09
2022-07-28T10:30:32.254Z,35.05
2022-07-28T10:32:08.258Z,34.92
2022-07-28T10:33:48.342Z,34.82
2022-07-28T10:35:22.677Z,34.94
2022-07-28T10:36:57.487Z,34.93
2022-07-28T10:38:35.838Z,35.01
2022-07-28T10:40:11.779Z,34.96
2022-07-28T10:41:45.183Z,35.10
2022-07-28T10:43:19.206Z,35.16
2022-07-28T10:44:55.875Z,35.19
2022-07-28T10:46:31.827Z,35.07
2022-07-28T10:48:06.900Z,35.16
2022-07-28T10:49:41.063Z,35.13
2022-07-28T10:51:16.332Z,35.06
2022-07-28T10:52:54.762Z,34.99
2022-07-28T10:54:36.054Z,35.00
2022-07-28T10:56:15.630Z,35.07
2022-07-28T10:58:02.309Z,34.94
2022-07-28T11:00:13.274Z,34.87
2022-07-28T11:01:50.165Z,34.82
2022-07-28T11:03:43.790Z,34.77
2022-07-28T11:05:39.349Z,35.25
2022-07-28T11:07:13.935Z,35.41
2022-07-28T11:08:47.589Z,35.27
2022-07-28T11:10:22.484Z,35.01
2022-07-28T11:11:58.264Z,34.98
2022-07-28T11:13:36.006Z,35.04
2022-07-28T11:15:26.361Z,34.99
2022-07-28T11:17:24.410Z,34.97
2022-07-28T11:19:40.817Z,34.91
2022-07-28T11:21:11.542Z,34.80
2022-07-28T11:22:52.068Z,34.95
2022-07-28T11:24:25.710Z,34.95
2022-07-28T11:26:36.418Z,34.85
2022-07-28T11:28:11.331Z,34.82
2022-07-28T11:29:48.178Z,34.77
2022-07-28T11:31:57.869Z,34.88
2022-07-28T11:34:04.355Z,34.86
2022-07-28T11:35:59.465Z,34.80
2022-07-28T11:37:32.848Z,34.86
2022-07-28T11:39:26.300Z,35.08
2022-07-28T11:41:00.317Z,35.21
2022-07-28T11:42:33.787Z,35.12
2022-07-28T11:44:25.826Z,35.29
2022-07-28T11:46:38.684Z,35.38
2022-07-28T11:48:14.671Z,35.33
2022-07-28T11:50:08.636Z,35.41
2022-07-28T11:51:51.249Z,35.46
2022-07-28T11:53:26.363Z,35.54
2022-07-28T11:55:00.743Z,35.53
2022-07-28T11:56:37.376Z,35.50
2022-07-28T11:58:25.788Z,35.49
2022-07-28T12:00:03.725Z,35.32
2022-07-28T12:01:38.842Z,35.19
2022-07-28T12:03:12.216Z,35.04
2022-07-28T12:04:46.758Z,34.93
2022-07-28T12:06:29.290Z,34.89
2022-07-28T12:08:04.645Z,34.89
2022-07-28T12:09:42.620Z,34.82
2022-07-28T12:11:16.601Z,34.73
2022-07-28T12:12:51.591Z,34.70
2022-07-28T12:14:26.587Z,34.70
2022-07-28T12:15:59.937Z,34.72
2022-07-28T12:17:36.648Z,34.69
2022-07-28T12:19:16.849Z,34.55
2022-07-28T12:20:52.900Z,34.40
2022-07-28T12:22:26.170Z,34.44
2022-07-28T12:24:01.032Z,34.45
2022-07-28T12:25:42.538Z,34.54
2022-07-28T12:27:16.503Z,34.64
2022-07-28T12:28:52.220Z,34.78
2022-07-28T12:30:27.624Z,34.99
2022-07-28T12:32:04.846Z,35.15
2022-07-28T12:33:38.592Z,35.21
2022-07-28T12:35:11.872Z,35.18
2022-07-28T12:36:45.231Z,35.20
2022-07-28T12:38:22.585Z,35.22
2022-07-28T12:39:57.854Z,35.16
2022-07-28T12:41:35.763Z,35.20
2022-07-28T12:43:09.405Z,35.25
2022-07-28T12:44:43.843Z,35.32
2022-07-28T12:46:21.668Z,35.39
2022-07-28T12:47:56.933Z,35.45
2022-07-28T12:49:30.572Z,35.56
2022-07-28T12:51:03.825Z,35.68
2022-07-28T12:52:37.365Z,35.73
2022-07-28T12:54:13.558Z,35.67
2022-07-28T12:55:48.892Z,35.60
2022-07-28T12:57:43.406Z,35.62
2022-07-28T12:59:21.991Z,35.56
2022-07-28T13:00:56.892Z,35.55
2022-07-28T13:02:37.125Z,35.62
2022-07-28T13:04:10.489Z,35.62
2022-07-28T13:06:01.326Z,35.61
2022-07-28T13:07:35.812Z,35.51
2022-07-28T13:09:14.854Z,35.52
2022-07-28T13:10:51.749Z,35.48
2022-07-28T13:12:30.986Z,35.41
2022-07-28T13:14:04.726Z,35.37
2022-07-28T13:15:38.065Z,35.22
2022-07-28T13:17:12.234Z,35.06
2022-07-28T13:18:47.267Z,34.91
2022-07-28T13:20:22.020Z,34.72
2022-07-28T13:22:01.732Z,34.66
2022-07-28T13:23:37.556Z,34.57
2022-07-28T13:25:11.003Z,34.59
2022-07-28T13:26:46.280Z,34.60
2022-07-28T13:28:26.931Z,34.55
2022-07-28T13:30:00.340Z,34.54
2022-07-28T13:31:36.050Z,34.40
2022-07-28T13:33:13.803Z,34.37
2022-07-28T13:34:48.111Z,34.38
2022-07-28T13:36:21.389Z,34.43
2022-07-28T13:37:54.769Z,34.33
2022-07-28T13:39:28.252Z,34.24
2022-07-28T13:41:01.599Z,34.22
2022-07-28T13:42:36.289Z,34.18
2022-07-28T13:44:10.623Z,34.12
2022-07-28T13:45:44.360Z,34.10
2022-07-28T13:47:17.697Z,34.07
2022-07-28T13:48:58.194Z,34.04
2022-07-28T13:50:33.763Z,34.02
2022-07-28T13:52:13.060Z,34.00
2022-07-28T13:53:46.712Z,34.04
2022-07-28T13:55:22.912Z,34.03
2022-07-28T13:56:56.669Z,33.99
2022-07-28T13:58:46.846Z,33.95
2022-07-28T14:00:22.838Z,33.85
2022-07-28T14:01:57.814Z,33.83
2022-07-28T14:03:50.701Z,33.70
2022-07-28T14:05:25.383Z,33.46
2022-07-28T14:07:05.991Z,33.41
2022-07-28T14:08:39.389Z,33.33
2022-07-28T14:10:15.643Z,33.24
2022-07-28T14:11:53.765Z,33.24
2022-07-28T14:13:28.266Z,33.12
2022-07-28T14:15:10.060Z,33.02
2022-07-28T14:16:44.452Z,32.92
2022-07-28T14:18:17.878Z,32.86
2022-07-28T14:19:51.333Z,32.59
2022-07-28T14:21:24.604Z,32.49
2022-07-28T14:22:58.376Z,32.38
2022-07-28T14:24:31.927Z,32.27
2022-07-28T14:26:33.376Z,32.12
2022-07-28T14:27:59.282Z,31.89
2022-07-28T14:29:32.967Z,31.55
2022-07-28T14:31:08.130Z,31.17
2022-07-28T14:32:45.355Z,31.07
2022-07-28T14:34:18.755Z,30.79
2022-07-28T14:35:52.635Z,30.43
2022-07-28T14:37:26.247Z,30.22
2022-07-28T14:38:59.545Z,30.16
2022-07-28T14:40:33.228Z,30.05
2022-07-28T14:42:13.109Z,29.92
2022-07-28T14:43:46.927Z,29.85
2022-07-28T14:45:20.788Z,29.86
2022-07-28T14:46:55.419Z,29.73
2022-07-28T14:48:29.585Z,29.74
2022-07-28T14:50:03.809Z,29.73
2022-07-28T14:51:42.922Z,29.71
2022-07-28T14:53:22.245Z,29.78
2022-07-28T14:54:55.990Z,29.83
2022-07-28T14:56:29.463Z,29.54
2022-07-28T14:58:02.858Z,29.28
2022-07-28T14:59:36.330Z,28.96
2022-07-28T15:01:09.819Z,28.70
2022-07-28T15:02:45.717Z,28.33
2022-07-28T15:04:19.331Z,28.01
2022-07-28T15:05:52.639Z,27.73
2022-07-28T15:07:26.033Z,27.37
2022-07-28T15:08:59.639Z,27.01
2022-07-28T15:10:33.041Z,26.78
2022-07-28T15:12:07.226Z,26.47
2022-07-28T15:13:40.694Z,26.27
2022-07-28T15:15:14.299Z,26.05
2022-07-28T15:16:47.635Z,25.75
2022-07-28T15:18:22.249Z,25.47
2022-07-28T15:19:58.064Z,25.23
2022-07-28T15:21:36.196Z,25.05
2022-07-28T15:23:11.057Z,24.83
2022-07-28T15:24:45.753Z,24.63
2022-07-28T15:26:18.277Z,24.45
2022-07-28T15:27:51.795Z,24.49
2022-07-28T15:29:25.002Z,24.42
2022-07-28T15:30:59.059Z,24.41
2022-07-28T15:32:32.842Z,24.46
2022-07-28T15:34:08.288Z,24.51
2022-07-28T15:35:57.538Z,24.61
2022-07-28T15:37:33.260Z,24.72
2022-07-28T15:39:09.376Z,24.75
2022-07-28T15:40:42.686Z,24.80
2022-07-28T15:42:21.655Z,24.83
2022-07-28T15:43:56.394Z,24.82
2022-07-28T15:45:29.780Z,24.92
2022-07-28T15:47:03.787Z,24.94
2022-07-28T15:48:37.296Z,24.96
2022-07-28T15:50:12.232Z,24.92
2022-07-28T15:51:45.579Z,24.96
2022-07-28T15:53:19.447Z,24.97
2022-07-28T15:54:52.785Z,24.98
2022-07-28T15:56:28.403Z,25.00
2022-07-28T15:58:01.927Z,24.97
2022-07-28T15:59:49.742Z,24.97
2022-07-28T16:01:26.618Z,24.97
2022-07-28T16:03:00.157Z,25.01
2022-07-28T16:04:33.817Z,25.07
2022-07-28T16:06:08.614Z,25.01
2022-07-28T16:07:44.932Z,25.11
2022-07-28T16:09:19.585Z,25.15
2022-07-28T16:10:54.285Z,25.24
2022-07-28T16:12:28.185Z,25.27
2022-07-28T16:14:01.467Z,25.31
2022-07-28T16:15:34.942Z,25.36
2022-07-28T16:17:08.939Z,25.34
2022-07-28T16:18:44.175Z,25.40
2022-07-28T16:20:17.817Z,25.45
2022-07-28T16:21:53.064Z,25.51
2022-07-28T16:23:26.429Z,25.61
2022-07-28T16:24:59.732Z,25.67
2022-07-28T16:26:33.009Z,25.71
2022-07-28T16:28:06.893Z,25.75
2022-07-28T16:29:40.279Z,25.85
2022-07-28T16:31:13.591Z,25.96
2022-07-28T16:32:47.844Z,26.02
2022-07-28T16:34:21.254Z,26.12
2022-07-28T16:35:54.507Z,26.24
2022-07-28T16:37:29.151Z,26.31
2022-07-28T16:39:03.710Z,26.39
2022-07-28T16:40:37.505Z,26.48
2022-07-28T16:42:10.865Z,26.54
2022-07-28T16:43:44.822Z,26.55
2022-07-28T16:45:19.400Z,26.57
2022-07-28T16:46:52.900Z,26.59
2022-07-28T16:48:26.201Z,26.59
2022-07-28T16:49:59.504Z,26.61
2022-07-28T16:51:32.774Z,26.62
2022-07-28T16:53:09.052Z,26.62
2022-07-28T16:54:42.651Z,26.65
2022-07-28T16:56:17.516Z,26.67
2022-07-28T16:57:50.965Z,26.65
2022-07-28T16:59:24.956Z,26.58
2022-07-28T17:01:11.852Z,26.45
2022-07-28T17:02:45.559Z,26.19
2022-07-28T17:04:20.350Z,25.97
2022-07-28T17:05:54.505Z,25.82
2022-07-28T17:07:27.846Z,25.84
2022-07-28T17:09:02.447Z,25.85
2022-07-28T17:10:35.745Z,25.80
2022-07-28T17:12:09.998Z,25.71
2022-07-28T17:13:45.479Z,25.59
2022-07-28T17:15:21.890Z,25.53
2022-07-28T17:16:56.590Z,25.47
2022-07-28T17:18:30.429Z,25.36
2022-07-28T17:20:03.882Z,25.28
2022-07-28T17:21:37.577Z,25.23
2022-07-28T17:23:11.238Z,25.12
2022-07-28T17:24:48.180Z,25.00
2022-07-28T17:28:15.156Z,24.86
2022-07-28T17:29:48.776Z,24.80
2022-07-28T17:31:22.391Z,24.75
2022-07-28T17:32:55.853Z,24.75
2022-07-28T17:34:30.631Z,24.81
2022-07-28T17:36:04.339Z,24.89
2022-07-28T17:37:37.530Z,24.95
2022-07-28T17:39:10.915Z,24.95
2022-07-28T17:40:46.398Z,24.94
2022-07-28T17:42:20.255Z,24.94
2022-07-28T17:43:53.572Z,24.95
2022-07-28T17:45:27.090Z,24.90
2022-07-28T17:47:01.562Z,24.91
2022-07-28T17:48:35.612Z,24.93
2022-07-28T17:50:13.035Z,24.99
2022-07-28T17:51:46.318Z,25.00
2022-07-28T17:53:20.483Z,24.98
2022-07-28T17:55:12.406Z,24.96
2022-07-28T17:56:49.750Z,24.96
2022-07-28T17:58:27.772Z,24.91
2022-07-28T18:00:01.522Z,24.91
2022-07-28T18:01:34.930Z,24.85
2022-07-28T18:03:11.482Z,24.81
2022-07-28T18:04:45.043Z,24.69
2022-07-28T18:06:18.696Z,24.60
2022-07-28T18:07:57.409Z,24.65
2022-07-28T18:09:32.534Z,24.66
2022-07-28T18:11:07.159Z,24.68
2022-07-28T18:12:43.257Z,24.65
2022-07-28T18:14:18.017Z,24.62
2022-07-28T18:15:51.807Z,24.65
2022-07-28T18:17:25.877Z,24.61
2022-07-28T18:18:59.336Z,24.57
2022-07-28T18:20:33.304Z,24.53
2022-07-28T18:22:06.528Z,24.55
2022-07-28T18:23:39.909Z,24.58
2022-07-28T18:25:13.521Z,24.62
2022-07-28T18:26:47.220Z,24.65
2022-07-28T18:28:22.246Z,24.64
2022-07-28T18:29:55.548Z,24.65
2022-07-28T18:31:29.179Z,24.64
2022-07-28T18:33:02.851Z,24.62
2022-07-28T18:34:36.196Z,24.57
2022-07-28T18:36:09.457Z,24.52
2022-07-28T18:37:45.852Z,24.52
2022-07-28T18:39:19.513Z,24.46
2022-07-28T18:40:53.009Z,24.44
2022-07-28T18:42:26.486Z,24.45
2022-07-28T18:44:01.246Z,24.43
2022-07-28T18:45:34.768Z,24.42
2022-07-28T18:47:08.102Z,24.44
2022-07-28T18:48:41.562Z,24.44
2022-07-28T18:50:27.901Z,24.44
2022-07-28T18:52:04.735Z,24.46
2022-07-28T18:53:38.024Z,24.49
2022-07-28T18:55:12.376Z,24.53
2022-07-28T18:56:45.941Z,24.55
2022-07-28T18:58:19.285Z,24.57
2022-07-28T18:59:54.007Z,24.56
2022-07-28T19:01:28.543Z,24.58
2022-07-28T19:03:02.100Z,24.57
2022-07-28T19:04:35.390Z,24.56
2022-07-28T19:06:08.651Z,24.56
2022-07-28T19:07:41.993Z,24.52
2022-07-28T19:09:15.389Z,24.51
2022-07-28T19:10:48.629Z,24.51
2022-07-28T19:12:22.011Z,24.51
2022-07-28T19:13:55.371Z,24.53
2022-07-28T19:15:30.475Z,24.54
2022-07-28T19:17:05.702Z,24.52
2022-07-28T19:18:39.207Z,24.47
2022-07-28T19:20:13.272Z,24.42
2022-07-28T19:21:46.681Z,24.36
2022-07-28T19:23:20.720Z,24.30
2022-07-28T19:24:54.162Z,24.17
2022-07-28T19:26:26.525Z,24.05
2022-07-28T19:27:59.845Z,23.97
2022-07-28T19:29:33.148Z,23.95
2022-07-28T19:31:10.745Z,23.92
2022-07-28T19:32:44.451Z,23.90
2022-07-28T19:34:18.110Z,23.85
2022-07-28T19:35:51.596Z,23.85
2022-07-28T19:37:25.012Z,23.85
2022-07-28T19:38:58.344Z,23.86
2022-07-28T19:40:32.268Z,23.86
2022-07-28T19:42:09.416Z,23.84
2022-07-28T19:43:43.053Z,23.85
2022-07-28T19:45:16.440Z,23.83
2022-07-28T19:46:53.250Z,23.81
2022-07-28T19:48:26.534Z,23.80
2022-07-28T19:50:00.343Z,23.77
2022-07-28T19:51:34.144Z,23.77
2022-07-28T19:53:07.428Z,23.75
2022-07-28T19:54:51.273Z,23.73
2022-07-28T19:56:30.248Z,23.71
2022-07-28T19:58:04.864Z,23.64
2022-07-28T19:59:38.380Z,23.51
2022-07-28T20:01:11.754Z,23.42
2022-07-28T20:02:46.744Z,23.34
2022-07-28T20:04:20.846Z,23.24
2022-07-28T20:05:54.600Z,23.19
2022-07-28T20:07:27.936Z,23.15
2022-07-28T20:09:01.649Z,23.08
2022-07-28T20:10:35.742Z,23.07
2022-07-28T20:12:09.294Z,22.98
2022-07-28T20:13:43.907Z,22.92
2022-07-28T20:15:17.371Z,22.90
2022-07-28T20:16:50.777Z,22.77
2022-07-28T20:18:25.439Z,22.64
2022-07-28T20:19:58.739Z,22.55
2022-07-28T20:21:39.136Z,22.59
2022-07-28T20:23:13.050Z,22.52
2022-07-28T20:24:46.339Z,22.58
2022-07-28T20:26:23.668Z,22.56
2022-07-28T20:27:57.390Z,22.59
2022-07-28T20:29:30.857Z,22.60
2022-07-28T20:31:04.382Z,22.60
2022-07-28T20:32:38.125Z,22.64
2022-07-28T20:34:15.138Z,22.63
2022-07-28T20:35:49.680Z,22.68
2022-07-28T20:37:35.920Z,22.71